createdAt,value
2023-03-22T00:01:43.238Z,6.74
2023-03-22T00:04:11.418Z,6.73
2023-03-22T00:06:39.349Z,6.73
2023-03-22T00:09:07.227Z,6.72
2023-03-22T00:11:35.233Z,6.70
2023-03-22T00:14:03.281Z,6.69
2023-03-22T00:16:31.622Z,6.67
2023-03-22T00:18:59.604Z,6.66
2023-03-22T00:21:30.120Z,6.68
2023-03-22T00:23:58.081Z,6.70
2023-03-22T00:26:25.992Z,6.73
2023-03-22T00:28:53.862Z,6.76
2023-03-22T00:31:21.754Z,6.80
2023-03-22T00:33:49.647Z,6.84
2023-03-22T00:36:17.640Z,6.88
2023-03-22T00:38:45.577Z,6.93
2023-03-22T00:41:14.590Z,6.94
2023-03-22T00:43:42.643Z,6.97
2023-03-22T00:46:10.895Z,6.99
2023-03-22T00:48:38.906Z,7.02
2023-03-22T00:51:07.640Z,7.04
2023-03-22T00:53:36.709Z,7.06
2023-03-22T00:56:05.677Z,7.07
2023-03-22T00:58:42.304Z,7.07
2023-03-22T01:01:14.177Z,7.05
2023-03-22T01:03:43.004Z,7.04
2023-03-22T01:06:11.437Z,7.04
2023-03-22T01:08:39.592Z,7.03
2023-03-22T01:11:07.875Z,7.01
2023-03-22T01:13:37.735Z,7.00
2023-03-22T01:16:06.755Z,7.00
2023-03-22T01:18:35.214Z,6.98
2023-03-22T01:21:03.626Z,6.94
2023-03-22T01:23:32.127Z,6.92
2023-03-22T01:26:00.251Z,6.90
2023-03-22T01:28:29.109Z,6.89
2023-03-22T01:30:57.218Z,6.89
2023-03-22T01:33:25.231Z,6.89
2023-03-22T01:35:53.413Z,6.88
2023-03-22T01:38:21.763Z,6.88
2023-03-22T01:40:57.311Z,6.88
2023-03-22T01:43:25.436Z,6.87
2023-03-22T01:45:53.990Z,6.88
2023-03-22T01:48:37.298Z,6.87
2023-03-22T01:51:17.054Z,6.87
2023-03-22T01:54:21.184Z,6.88
2023-03-22T01:56:49.465Z,6.88
2023-03-22T01:59:23.415Z,6.89
2023-03-22T02:02:22.159Z,6.90
2023-03-22T02:04:58.282Z,6.91
2023-03-22T02:07:28.367Z,6.94
2023-03-22T02:09:58.346Z,6.96
2023-03-22T02:12:37.814Z,6.98
2023-03-22T02:15:30.122Z,7.01
2023-03-22T02:18:51.533Z,7.03
2023-03-22T02:21:56.862Z,7.05
2023-03-22T02:24:35.891Z,7.07
2023-03-22T02:27:12.869Z,7.09
2023-03-22T02:29:48.921Z,7.10
2023-03-22T02:32:48.159Z,7.13
2023-03-22T02:35:48.764Z,7.12
2023-03-22T02:38:28.873Z,7.12
2023-03-22T02:41:08.919Z,7.13
2023-03-22T02:43:53.320Z,7.13
2023-03-22T02:46:57.127Z,7.12
2023-03-22T02:49:35.921Z,7.10
2023-03-22T02:52:10.445Z,7.07
2023-03-22T02:54:40.230Z,7.07
2023-03-22T02:57:17.168Z,7.06
2023-03-22T02:59:45.088Z,7.05
2023-03-22T03:02:13.746Z,7.05
2023-03-22T03:04:45.319Z,7.04
2023-03-22T03:07:14.588Z,7.03
2023-03-22T03:09:42.544Z,7.04
2023-03-22T03:12:16.185Z,7.06
2023-03-22T03:14:44.226Z,7.06
2023-03-22T03:17:18.327Z,7.06
2023-03-22T03:20:20.071Z,7.07
2023-03-22T03:22:54.666Z,7.08
2023-03-22T03:25:43.737Z,7.07
2023-03-22T03:28:38.582Z,7.08
2023-03-22T03:31:09.765Z,7.08
2023-03-22T03:33:57.384Z,7.08
2023-03-22T03:36:25.350Z,7.06
2023-03-22T03:38:53.374Z,7.04
2023-03-22T03:41:23.811Z,7.03
2023-03-22T03:43:51.783Z,7.01
2023-03-22T03:46:20.290Z,6.98
2023-03-22T03:48:49.146Z,6.97
2023-03-22T03:51:17.062Z,6.96
2023-03-22T03:53:45.107Z,6.94
2023-03-22T03:56:13.110Z,6.94
2023-03-22T03:58:44.818Z,6.92
2023-03-22T04:01:12.883Z,6.92
2023-03-22T04:04:07.557Z,6.89
2023-03-22T04:06:45.218Z,6.88
2023-03-22T04:09:17.651Z,6.86
2023-03-22T04:11:49.077Z,6.85
2023-03-22T04:14:17.483Z,6.83
2023-03-22T04:16:47.990Z,6.82
2023-03-22T04:19:17.364Z,6.82
2023-03-22T04:21:46.025Z,6.81
2023-03-22T04:24:14.180Z,6.81
2023-03-22T04:26:43.995Z,6.79
2023-03-22T04:29:36.403Z,6.78
2023-03-22T04:32:28.762Z,6.78
2023-03-22T04:34:57.579Z,6.77
2023-03-22T04:37:27.177Z,6.76
2023-03-22T04:40:16.680Z,6.79
2023-03-22T04:43:04.269Z,6.77
2023-03-22T04:45:46.367Z,6.79
2023-03-22T04:48:20.675Z,6.78
2023-03-22T04:50:49.368Z,6.78
2023-03-22T04:53:17.601Z,6.77
2023-03-22T04:55:46.662Z,6.76
2023-03-22T04:58:16.644Z,6.76
2023-03-22T05:00:45.562Z,6.76
2023-03-22T05:03:19.681Z,6.77
2023-03-22T05:05:56.542Z,6.79
2023-03-22T05:08:27.030Z,6.82
2023-03-22T05:10:55.873Z,6.80
2023-03-22T05:13:26.118Z,6.81
2023-03-22T05:15:55.367Z,6.81
2023-03-22T05:18:30.555Z,6.81
2023-03-22T05:20:59.030Z,6.84
2023-03-22T05:23:27.502Z,6.85
2023-03-22T05:25:59.113Z,6.85
2023-03-22T05:28:32.824Z,6.89
2023-03-22T05:31:16.530Z,6.91
2023-03-22T05:33:58.322Z,6.93
2023-03-22T05:36:30.120Z,6.98
2023-03-22T05:39:20.590Z,7.02
2023-03-22T05:41:49.377Z,7.06
2023-03-22T05:44:17.410Z,7.07
2023-03-22T05:46:55.599Z,7.14
2023-03-22T05:49:34.938Z,7.15
2023-03-22T05:52:06.323Z,7.15
2023-03-22T05:55:00.276Z,7.13
2023-03-22T05:57:30.355Z,7.14
2023-03-22T05:59:59.309Z,7.13
2023-03-22T06:02:41.632Z,7.17
2023-03-22T06:05:13.666Z,7.15
2023-03-22T06:07:43.576Z,7.16
2023-03-22T06:10:18.048Z,7.17
2023-03-22T06:12:47.476Z,7.18
2023-03-22T06:15:22.912Z,7.20
2023-03-22T06:18:02.861Z,7.21
2023-03-22T06:20:46.454Z,7.23
2023-03-22T06:23:27.821Z,7.27
2023-03-22T06:25:55.957Z,7.32
2023-03-22T06:28:24.142Z,7.35
2023-03-22T06:30:54.832Z,7.43
2023-03-22T06:33:30.600Z,7.50
2023-03-22T06:36:07.660Z,7.54
2023-03-22T06:38:43.557Z,7.60
2023-03-22T06:41:12.177Z,7.66
2023-03-22T06:43:40.110Z,7.73
2023-03-22T06:46:17.399Z,7.78
2023-03-22T06:48:54.828Z,7.85
2023-03-22T06:51:23.059Z,7.92
2023-03-22T06:53:51.366Z,7.98
2023-03-22T06:56:20.262Z,8.04
2023-03-22T06:58:54.889Z,8.08
2023-03-22T07:01:23.001Z,8.09
2023-03-22T07:03:51.204Z,8.23
2023-03-22T07:06:23.154Z,8.30
2023-03-22T07:08:52.244Z,8.34
2023-03-22T07:11:27.318Z,8.42
2023-03-22T07:14:00.379Z,8.53
2023-03-22T07:16:35.558Z,8.61
2023-03-22T07:19:05.388Z,8.66
2023-03-22T07:21:33.558Z,8.70
2023-03-22T07:24:07.870Z,8.76
2023-03-22T07:26:42.177Z,8.80
2023-03-22T07:29:11.446Z,8.92
2023-03-22T07:31:40.244Z,9.02
2023-03-22T07:34:12.225Z,9.12
2023-03-22T07:37:03.819Z,9.12
2023-03-22T07:39:32.105Z,9.15
2023-03-22T07:42:00.329Z,9.17
2023-03-22T07:44:54.286Z,9.21
2023-03-22T07:47:40.060Z,9.18
2023-03-22T07:50:25.568Z,9.20
2023-03-22T07:52:56.652Z,9.23
2023-03-22T07:55:24.749Z,9.27
2023-03-22T07:57:53.841Z,9.27
2023-03-22T08:00:22.576Z,9.31
2023-03-22T08:02:56.634Z,9.32
2023-03-22T08:05:42.424Z,9.34
2023-03-22T08:08:13.769Z,9.38
2023-03-22T08:10:42.148Z,9.44
2023-03-22T08:13:10.758Z,9.46
2023-03-22T08:15:39.180Z,9.46
2023-03-22T08:18:08.948Z,9.46
2023-03-22T08:20:41.353Z,9.52
2023-03-22T08:23:16.194Z,9.52
2023-03-22T08:25:53.448Z,9.50
2023-03-22T08:28:22.565Z,9.54
2023-03-22T08:30:51.002Z,9.54
2023-03-22T08:33:23.340Z,9.52
2023-03-22T08:35:51.735Z,9.52
2023-03-22T08:38:20.175Z,9.50
2023-03-22T08:40:51.209Z,9.52
2023-03-22T08:43:22.733Z,9.48
2023-03-22T08:45:51.919Z,9.49
2023-03-22T08:48:21.206Z,9.45
2023-03-22T08:51:06.762Z,9.46
2023-03-22T08:54:00.358Z,9.55
2023-03-22T08:56:46.913Z,9.60
2023-03-22T08:59:24.384Z,9.62
2023-03-22T09:02:04.242Z,9.64
2023-03-22T09:04:32.357Z,9.63
2023-03-22T09:07:00.419Z,9.63
2023-03-22T09:09:28.465Z,9.79
2023-03-22T09:11:58.270Z,9.91
2023-03-22T09:14:26.305Z,10.03
2023-03-22T09:16:54.648Z,10.20
2023-03-22T09:19:22.655Z,10.20
2023-03-22T09:21:50.789Z,10.30
2023-03-22T09:24:28.091Z,10.43
2023-03-22T09:26:58.347Z,10.55
2023-03-22T09:29:26.347Z,10.61
2023-03-22T09:31:54.311Z,10.73
2023-03-22T09:34:27.817Z,10.90
2023-03-22T09:36:58.771Z,10.91
2023-03-22T09:39:29.409Z,10.80
2023-03-22T09:42:01.318Z,10.74
2023-03-22T09:44:32.484Z,10.71
2023-03-22T09:47:02.309Z,10.72
2023-03-22T09:49:52.528Z,10.81
2023-03-22T09:52:24.456Z,10.87
2023-03-22T09:54:53.422Z,10.96
2023-03-22T09:57:29.739Z,11.02
2023-03-22T10:00:21.022Z,11.14
2023-03-22T10:02:59.148Z,11.31
2023-03-22T10:05:39.095Z,11.59
2023-03-22T10:08:26.315Z,11.96
2023-03-22T10:10:54.577Z,12.19
2023-03-22T10:13:25.700Z,12.30
2023-03-22T10:15:59.996Z,12.46
2023-03-22T10:18:47.395Z,12.49
2023-03-22T10:21:17.446Z,12.49
2023-03-22T10:23:56.500Z,12.52
2023-03-22T10:26:37.560Z,12.38
2023-03-22T10:29:14.264Z,12.26
2023-03-22T10:31:43.620Z,12.06
2023-03-22T10:34:21.467Z,11.85
2023-03-22T10:36:51.225Z,11.68
2023-03-22T10:39:32.149Z,11.66
2023-03-22T10:42:02.040Z,11.58
2023-03-22T10:44:31.532Z,11.41
2023-03-22T10:46:59.956Z,11.30
2023-03-22T10:49:31.768Z,11.25
2023-03-22T10:52:03.657Z,11.18
2023-03-22T10:54:31.685Z,11.16
2023-03-22T10:56:59.653Z,11.16
2023-03-22T10:59:49.847Z,11.34
2023-03-22T11:02:30.057Z,11.62
2023-03-22T11:05:03.982Z,12.08
2023-03-22T11:07:34.761Z,12.87
2023-03-22T11:10:08.582Z,13.46
2023-03-22T11:12:40.097Z,13.58
2023-03-22T11:15:23.506Z,13.74
2023-03-22T11:17:51.654Z,13.94
2023-03-22T11:20:20.519Z,14.01
2023-03-22T11:22:49.622Z,14.05
2023-03-22T11:25:28.478Z,14.08
2023-03-22T11:28:06.124Z,14.15
2023-03-22T11:30:34.661Z,14.45
2023-03-22T11:33:08.695Z,14.59
2023-03-22T11:35:38.390Z,14.73
2023-03-22T11:38:06.360Z,14.84
2023-03-22T11:40:35.794Z,14.81
2023-03-22T11:43:18.282Z,14.69
2023-03-22T11:45:46.381Z,14.39
2023-03-22T11:48:21.466Z,14.22
2023-03-22T11:50:49.635Z,14.13
2023-03-22T11:53:19.804Z,14.08
2023-03-22T11:55:49.057Z,14.10
2023-03-22T11:58:45.970Z,14.24
2023-03-22T12:01:19.286Z,14.16
2023-03-22T12:03:50.018Z,14.05
2023-03-22T12:06:24.812Z,14.07
2023-03-22T12:09:06.618Z,14.13
2023-03-22T12:11:41.689Z,14.18
2023-03-22T12:14:17.423Z,14.29
2023-03-22T12:16:49.989Z,14.40
2023-03-22T12:19:36.742Z,14.53
2023-03-22T12:22:29.713Z,14.65
2023-03-22T12:24:58.998Z,14.78
2023-03-22T12:27:29.864Z,14.68
2023-03-22T12:30:10.407Z,14.74
2023-03-22T12:32:42.114Z,14.83
2023-03-22T12:35:18.301Z,14.90
2023-03-22T12:37:48.554Z,14.93
2023-03-22T12:40:23.146Z,14.98
2023-03-22T12:43:19.841Z,14.96
2023-03-22T12:45:53.359Z,14.99
2023-03-22T12:48:28.732Z,15.10
2023-03-22T12:50:58.668Z,15.18
2023-03-22T12:53:28.836Z,15.34
2023-03-22T12:55:56.873Z,15.47
2023-03-22T12:58:25.976Z,15.51
2023-03-22T13:01:23.074Z,15.34
2023-03-22T13:03:54.044Z,15.36
2023-03-22T13:06:32.722Z,15.33
2023-03-22T13:09:15.627Z,15.28
2023-03-22T13:11:45.726Z,15.18
2023-03-22T13:14:56.334Z,15.11
2023-03-22T13:17:24.601Z,15.16
2023-03-22T13:20:11.733Z,15.11
2023-03-22T13:22:41.708Z,15.11
2023-03-22T13:25:13.360Z,15.10
2023-03-22T13:28:00.700Z,15.27
2023-03-22T13:31:04.280Z,15.39
2023-03-22T13:33:34.858Z,15.46
2023-03-22T13:36:07.541Z,15.51
2023-03-22T13:38:42.799Z,15.51
2023-03-22T13:41:14.052Z,15.51
2023-03-22T13:43:52.150Z,15.45
2023-03-22T13:46:20.802Z,15.46
2023-03-22T13:48:49.581Z,15.33
2023-03-22T13:51:21.333Z,15.31
2023-03-22T13:54:13.768Z,15.34
2023-03-22T13:56:47.907Z,15.26
2023-03-22T13:59:25.672Z,15.22
2023-03-22T14:02:16.079Z,15.24
2023-03-22T14:04:56.290Z,15.24
2023-03-22T14:07:27.614Z,15.32
2023-03-22T14:10:05.728Z,15.42
2023-03-22T14:12:52.623Z,15.39
2023-03-22T14:15:32.141Z,15.39
2023-03-22T14:18:04.581Z,15.46
2023-03-22T14:20:36.682Z,15.39
